Time;durP1;ratioP1;P1;durP2;ratioP2;P2;SDS_P1;SDS_P2;PMS_P1;PMS_P2;Temp;Humidity;BMP_temperature;BMP_pressure;BME280_temperature;BME280_humidity;BME280_pressure;Samples;Min_cycle;Max_cycle;Signal;HPM_P1;HPM_P2
2022/09/17 00:01:18;;;;;;;4.33;1.53;;;17.60;84.00;;;;;;4937875;29;20488;-75
2022/09/17 00:03:47;;;;;;;2.77;1.40;;;17.60;84.10;;;;;;4954870;29;20529;-74
2022/09/17 00:06:13;;;;;;;3.77;1.30;;;17.60;84.10;;;;;;4939975;29;20427;-74
2022/09/17 00:08:40;;;;;;;3.40;1.17;;;17.60;84.10;;;;;;4920572;29;20411;-74
2022/09/17 00:11:10;;;;;;;1.73;1.17;;;17.60;84.20;;;;;;4939225;28;20559;-74
2022/09/17 00:13:36;;;;;;;2.13;1.13;;;17.60;85.00;;;;;;4926945;29;20439;-74
2022/09/17 00:16:22;;;;;;;4.50;1.70;;;17.50;84.10;;;;;;4924732;29;20447;-74
2022/09/17 00:18:50;;;;;;;4.00;1.20;;;17.60;84.20;;;;;;4947736;29;20424;-74
2022/09/17 00:21:19;;;;;;;4.27;1.23;;;17.60;84.30;;;;;;4951319;29;20462;-75
2022/09/17 00:23:47;;;;;;;5.53;1.37;;;17.50;84.20;;;;;;4932157;29;20521;-75
2022/09/17 00:26:18;;;;;;;3.23;1.30;;;17.50;84.20;;;;;;4904604;29;20427;-75
2022/09/17 00:28:51;;;;;;;3.80;1.53;;;17.50;84.20;;;;;;4925886;29;20476;-75
2022/09/17 00:31:18;;;;;;;5.40;1.27;;;17.50;84.20;;;;;;4925260;29;20427;-75
2022/09/17 00:33:48;;;;;;;2.83;1.23;;;17.50;84.20;;;;;;4937329;29;20442;-75
2022/09/17 00:36:16;;;;;;;4.30;1.40;;;17.50;84.30;;;;;;4951771;28;20457;-75
2022/09/17 00:38:46;;;;;;;3.90;2.50;;;17.50;84.30;;;;;;4951368;29;20466;-75
2022/09/17 00:41:15;;;;;;;2.10;1.10;;;17.50;84.40;;;;;;4953414;28;20607;-75
2022/09/17 00:43:47;;;;;;;2.23;1.30;;;17.50;84.40;;;;;;4945755;29;20493;-76
2022/09/17 00:46:25;;;;;;;2.47;1.20;;;17.50;84.50;;;;;;4936693;29;20926;-75
2022/09/17 00:49:01;;;;;;;5.23;1.80;;;17.50;84.60;;;;;;4935309;29;20459;-74
2022/09/17 00:51:39;;;;;;;5.43;1.50;;;17.50;84.70;;;;;;4935650;29;20431;-75
2022/09/17 00:54:08;;;;;;;3.00;1.30;;;17.40;84.60;;;;;;4922213;29;20499;-75
2022/09/17 00:56:39;;;;;;;2.40;1.40;;;17.40;84.70;;;;;;4938921;29;20425;-75
2022/09/17 00:59:07;;;;;;;5.10;1.47;;;17.40;84.80;;;;;;4926222;29;20434;-75
2022/09/17 01:01:36;;;;;;;4.57;1.30;;;17.40;84.90;;;;;;4920407;29;20553;-75
2022/09/17 01:04:04;;;;;;;4.67;1.63;;;17.40;84.80;;;;;;4931857;29;20570;-75
2022/09/17 01:07:10;;;;;;;4.53;1.40;;;17.40;84.90;;;;;;4922585;29;20426;-75
2022/09/17 01:09:59;;;;;;;4.27;1.63;;;17.40;85.00;;;;;;4952467;28;20541;-75
2022/09/17 01:13:06;;;;;;;4.33;1.57;;;17.40;85.00;;;;;;4937766;29;20896;-75
2022/09/17 01:16:04;;;;;;;2.73;1.40;;;17.40;85.10;;;;;;4966825;28;20500;-74
2022/09/17 01:18:36;;;;;;;8.20;1.73;;;17.40;85.20;;;;;;4919867;29;20453;-76
2022/09/17 01:21:23;;;;;;;3.90;1.23;;;17.40;85.20;;;;;;4970278;28;20524;-75
2022/09/17 01:24:10;;;;;;;4.20;1.57;;;17.30;85.20;;;;;;4969272;28;20452;-74
2022/09/17 01:27:09;;;;;;;3.20;1.43;;;17.30;85.20;;;;;;4953142;29;20444;-75
2022/09/17 01:29:53;;;;;;;3.03;1.43;;;17.30;86.10;;;;;;4928410;29;20446;-74
2022/09/17 01:32:45;;;;;;;3.13;1.10;;;17.30;85.30;;;;;;4942372;29;20428;-74
2022/09/17 01:35:18;;;;;;;3.83;1.67;;;17.30;85.40;;;;;;4968656;28;20822;-75
2022/09/17 01:38:22;;;;;;;5.23;2.43;;;17.30;85.40;;;;;;4948732;29;20537;-75
2022/09/17 01:40:51;;;;;;;2.43;1.20;;;17.30;85.50;;;;;;4937066;29;20476;-74
2022/09/17 01:44:00;;;;;;;4.07;1.77;;;17.30;85.50;;;;;;4954808;29;20413;-74
2022/09/17 01:46:41;;;;;;;2.47;1.70;;;17.30;85.50;;;;;;4920451;29;20470;-74
2022/09/17 01:49:09;;;;;;;2.60;1.30;;;17.30;85.60;;;;;;4921172;29;20448;-74
2022/09/17 01:51:41;;;;;;;3.07;1.67;;;17.20;85.40;;;;;;4954871;29;20413;-74
2022/09/17 01:54:35;;;;;;;3.47;1.30;;;17.20;85.40;;;;;;4939328;29;20456;-75
2022/09/17 01:57:03;;;;;;;3.40;1.40;;;17.20;85.40;;;;;;4918800;29;20526;-76
2022/09/17 01:59:34;;;;;;;2.93;1.17;;;17.20;85.50;;;;;;4913218;29;20789;-76
2022/09/17 02:02:11;;;;;;;6.30;1.60;;;17.20;85.60;;;;;;4902707;29;20455;-75
2022/09/17 02:05:01;;;;;;;3.20;1.43;;;17.30;85.70;;;;;;4952994;29;20461;-75
2022/09/17 02:07:30;;;;;;;3.20;1.50;;;17.20;85.60;;;;;;4953386;28;20445;-76
2022/09/17 02:10:12;;;;;;;4.53;1.50;;;17.30;85.70;;;;;;4934563;29;20783;-75
2022/09/17 02:13:15;;;;;;;4.27;1.70;;;17.20;85.60;;;;;;4923611;29;20466;-75
2022/09/17 02:15:50;;;;;;;3.70;1.40;;;17.20;85.60;;;;;;4921702;29;20455;-75
2022/09/17 02:18:40;;;;;;;6.50;1.50;;;17.20;85.70;;;;;;4937157;29;20461;-75
2022/09/17 02:21:27;;;;;;;2.60;1.47;;;17.20;85.70;;;;;;4902496;29;20509;-76
2022/09/17 02:24:02;;;;;;;1.93;1.20;;;17.20;85.80;;;;;;4935138;29;20407;-75
2022/09/17 02:26:31;;;;;;;4.80;1.67;;;17.20;85.90;;;;;;4918380;29;20773;-75
2022/09/17 02:29:03;;;;;;;4.67;1.53;;;17.20;85.90;;;;;;4919233;29;20423;-75
2022/09/17 02:31:31;;;;;;;4.90;1.70;;;17.20;85.90;;;;;;4924099;29;20805;-75
2022/09/17 02:34:04;;;;;;;7.00;1.33;;;17.20;85.90;;;;;;4935501;29;20479;-75
2022/09/17 02:36:31;;;;;;;3.60;1.93;;;17.20;85.90;;;;;;4930027;29;20447;-75
2022/09/17 02:39:00;;;;;;;3.43;1.57;;;17.10;85.80;;;;;;4937569;29;20444;-75
2022/09/17 02:41:45;;;;;;;1.83;1.10;;;17.20;85.90;;;;;;4923043;29;20981;-75
2022/09/17 02:44:36;;;;;;;4.90;2.80;;;17.10;85.80;;;;;;4953214;29;20842;-75
2022/09/17 02:47:30;;;;;;;3.00;1.50;;;17.10;85.80;;;;;;4921698;29;20951;-75
2022/09/17 02:50:10;;;;;;;4.70;1.57;;;17.20;86.00;;;;;;4938895;29;20467;-75
2022/09/17 02:52:39;;;;;;;5.20;2.20;;;17.10;85.90;;;;;;4918188;29;20954;-75
2022/09/17 02:55:16;;;;;;;4.03;1.60;;;17.10;85.90;;;;;;4936278;29;20956;-76
2022/09/17 02:58:33;;;;;;;4.30;1.57;;;17.10;86.00;;;;;;4952396;29;20418;-75
2022/09/17 03:01:06;;;;;;;5.00;1.40;;;17.10;86.00;;;;;;4898116;29;20476;-75
2022/09/17 03:03:38;;;;;;;7.80;1.80;;;17.10;86.10;;;;;;4940972;29;20632;-75
2022/09/17 03:06:07;;;;;;;4.77;1.90;;;17.10;86.00;;;;;;4957778;29;20444;-75
2022/09/17 03:08:38;;;;;;;4.43;1.60;;;17.10;86.00;;;;;;4933516;29;20924;-75
2022/09/17 03:11:09;;;;;;;3.63;1.40;;;17.10;86.00;;;;;;4913693;29;20429;-75
2022/09/17 03:13:35;;;;;;;5.93;1.90;;;17.10;86.00;;;;;;4945793;29;20473;-75
2022/09/17 03:16:07;;;;;;;4.63;1.37;;;17.10;85.90;;;;;;4906065;29;20991;-75
2022/09/17 03:18:33;;;;;;;3.80;1.73;;;17.10;86.00;;;;;;4944135;29;20419;-75
2022/09/17 03:21:02;;;;;;;5.03;2.80;;;17.10;86.00;;;;;;4948669;29;20581;-76
2022/09/17 03:23:28;;;;;;;3.23;1.40;;;17.10;85.90;;;;;;4921590;29;20445;-76
2022/09/17 03:25:54;;;;;;;5.67;2.00;;;17.10;86.00;;;;;;4905724;29;20818;-75
2022/09/17 03:28:21;;;;;;;4.50;1.50;;;17.10;86.00;;;;;;4924446;29;20425;-75
2022/09/17 03:30:50;;;;;;;5.23;1.70;;;17.00;85.90;;;;;;4922479;29;20555;-75
2022/09/17 03:33:16;;;;;;;4.93;1.60;;;17.00;85.90;;;;;;4918115;29;20455;-75
2022/09/17 03:35:48;;;;;;;2.90;1.47;;;17.00;86.00;;;;;;4921365;29;20454;-74
2022/09/17 03:38:16;;;;;;;7.63;3.23;;;17.00;85.90;;;;;;4921810;28;20460;-74
2022/09/17 03:40:58;;;;;;;5.53;1.80;;;17.00;85.90;;;;;;4954518;29;20453;-72
2022/09/17 03:43:24;;;;;;;4.00;2.00;;;17.00;86.00;;;;;;4972240;28;20423;-74
2022/09/17 03:45:56;;;;;;;2.40;1.43;;;17.00;86.00;;;;;;4934674;29;20968;-73
2022/09/17 03:48:28;;;;;;;5.23;1.77;;;17.00;86.00;;;;;;4950477;28;20444;-72
2022/09/17 03:50:56;;;;;;;3.50;1.40;;;17.00;86.00;;;;;;4962303;28;20461;-73
2022/09/17 03:53:23;;;;;;;3.83;1.50;;;17.00;86.10;;;;;;4921931;29;20505;-72
2022/09/17 03:55:53;;;;;;;3.90;1.50;;;17.00;86.10;;;;;;5008399;23;20510;-72
2022/09/17 03:58:22;;;;;;;3.30;1.70;;;17.00;86.10;;;;;;4938645;29;20558;-72
2022/09/17 04:00:56;;;;;;;4.10;1.70;;;16.90;86.00;;;;;;4950172;29;20464;-70
2022/09/17 04:03:29;;;;;;;6.47;1.87;;;16.90;86.00;;;;;;4952170;29;20953;-71
2022/09/17 04:05:55;;;;;;;2.77;1.30;;;17.00;86.10;;;;;;4955142;28;20510;-73
2022/09/17 04:08:24;;;;;;;3.40;1.30;;;16.90;86.00;;;;;;4951185;28;20420;-72
2022/09/17 04:10:53;;;;;;;4.27;1.37;;;16.90;86.10;;;;;;4940032;29;20792;-72
2022/09/17 04:13:19;;;;;;;4.80;1.70;;;16.90;86.10;;;;;;4954256;28;20433;-72
2022/09/17 04:15:46;;;;;;;9.73;1.93;;;16.90;86.10;;;;;;4955414;28;20439;-73
2022/09/17 04:18:15;;;;;;;3.43;1.13;;;16.90;86.10;;;;;;4950877;29;20432;-71
2022/09/17 04:20:43;;;;;;;5.20;1.83;;;16.90;86.20;;;;;;4939863;29;20461;-71
2022/09/17 04:23:13;;;;;;;4.00;1.43;;;16.90;86.20;;;;;;4955360;29;20779;-70
2022/09/17 04:25:44;;;;;;;3.93;1.17;;;16.90;86.20;;;;;;4953516;28;20443;-71
2022/09/17 04:28:12;;;;;;;5.17;1.73;;;16.90;86.20;;;;;;4936945;29;20831;-70
2022/09/17 04:30:42;;;;;;;3.60;1.33;;;16.90;86.30;;;;;;4937313;29;20941;-71
2022/09/17 04:33:10;;;;;;;3.00;1.30;;;16.90;86.30;;;;;;4955867;28;20660;-71
2022/09/17 04:35:36;;;;;;;5.70;1.23;;;16.90;86.50;;;;;;4968374;28;20526;-71
2022/09/17 04:38:03;;;;;;;3.30;1.17;;;16.80;86.40;;;;;;4935430;29;20434;-70
2022/09/17 04:40:30;;;;;;;8.13;1.50;;;16.90;86.60;;;;;;4937176;29;20487;-70
2022/09/17 04:43:02;;;;;;;1.73;1.00;;;16.90;86.60;;;;;;4955044;29;20423;-73
2022/09/17 04:45:29;;;;;;;4.93;1.63;;;16.80;86.50;;;;;;4932048;29;20439;-70
2022/09/17 04:47:55;;;;;;;5.50;1.43;;;16.80;86.50;;;;;;4953299;28;20518;-75
2022/09/17 04:50:21;;;;;;;8.47;1.80;;;16.80;86.50;;;;;;4925153;29;20525;-73
2022/09/17 04:52:50;;;;;;;6.50;1.60;;;16.80;86.50;;;;;;4939623;29;20478;-72
2022/09/17 04:55:18;;;;;;;6.83;1.50;;;16.80;86.50;;;;;;4955486;28;20801;-72
2022/09/17 04:57:54;;;;;;;4.33;1.40;;;16.80;86.50;;;;;;4951551;28;20467;-72
2022/09/17 05:00:22;;;;;;;5.30;1.70;;;16.80;86.60;;;;;;4935300;29;20412;-72
2022/09/17 05:02:53;;;;;;;3.10;1.43;;;16.80;86.50;;;;;;4954748;29;20963;-71
2022/09/17 05:05:20;;;;;;;6.30;1.27;;;16.80;86.60;;;;;;4949994;28;20452;-72
2022/09/17 05:07:46;;;;;;;9.03;1.90;;;16.80;86.60;;;;;;4936452;29;20500;-72
2022/09/17 05:10:15;;;;;;;4.40;1.47;;;16.80;86.60;;;;;;4954337;28;20511;-72
2022/09/17 05:12:50;;;;;;;2.27;1.40;;;16.70;86.50;;;;;;4955064;29;20416;-72
2022/09/17 05:15:23;;;;;;;3.30;1.43;;;16.70;86.50;;;;;;4950313;28;20518;-71
2022/09/17 05:17:51;;;;;;;3.27;1.40;;;16.70;86.50;;;;;;4935566;29;20954;-72
2022/09/17 05:20:18;;;;;;;3.30;1.30;;;16.70;86.50;;;;;;4949144;29;21056;-72
2022/09/17 05:22:48;;;;;;;8.77;1.90;;;16.80;86.60;;;;;;4952395;28;20427;-71
2022/09/17 05:25:18;;;;;;;3.50;1.60;;;16.70;86.40;;;;;;4937118;29;20814;-74
2022/09/17 05:27:44;;;;;;;3.73;1.60;;;16.70;86.40;;;;;;4944515;29;20419;-71
2022/09/17 05:30:11;;;;;;;5.83;1.50;;;16.70;86.50;;;;;;4939935;29;20451;-72
2022/09/17 05:32:40;;;;;;;5.37;1.77;;;16.70;86.50;;;;;;4954641;28;20519;-72
2022/09/17 05:35:09;;;;;;;9.93;1.43;;;16.70;86.60;;;;;;4963456;28;20630;-72
2022/09/17 05:37:36;;;;;;;4.80;2.07;;;16.70;86.60;;;;;;4942493;29;20841;-72
2022/09/17 05:40:05;;;;;;;4.00;1.33;;;16.70;86.70;;;;;;4942964;29;20810;-72
2022/09/17 05:42:32;;;;;;;2.50;1.27;;;16.70;86.60;;;;;;4935315;29;20473;-71
2022/09/17 05:44:58;;;;;;;3.83;1.53;;;16.70;86.70;;;;;;4919006;29;20451;-72
2022/09/17 05:47:24;;;;;;;5.63;1.50;;;16.70;86.70;;;;;;4934341;29;20879;-72
2022/09/17 05:49:50;;;;;;;3.73;1.17;;;16.60;86.50;;;;;;4942281;29;20438;-71
2022/09/17 05:52:16;;;;;;;4.87;1.30;;;16.60;86.50;;;;;;4950876;29;20439;-72
2022/09/17 05:54:42;;;;;;;3.93;1.40;;;16.60;86.60;;;;;;4960703;28;20209;-72
2022/09/17 05:57:08;;;;;;;6.60;1.47;;;16.60;86.60;;;;;;4953012;29;20444;-72
2022/09/17 05:59:35;;;;;;;3.83;1.40;;;16.60;87.40;;;;;;4954495;28;20458;-73
2022/09/17 06:02:01;;;;;;;5.40;1.73;;;16.60;86.70;;;;;;4934028;29;20458;-72
2022/09/17 06:04:27;;;;;;;3.40;1.80;;;16.60;86.70;;;;;;4963009;28;20459;-72
2022/09/17 06:06:53;;;;;;;4.70;1.60;;;16.70;86.80;;;;;;4968935;28;20420;-72
2022/09/17 06:09:42;;;;;;;3.50;1.40;;;16.60;86.70;;;;;;4949362;28;20516;-72
2022/09/17 06:12:07;;;;;;;5.50;1.63;;;16.60;86.80;;;;;;4939639;29;20434;-72
2022/09/17 06:14:33;;;;;;;7.30;1.80;;;16.60;86.80;;;;;;4952668;28;20447;-72
2022/09/17 06:16:59;;;;;;;5.13;2.00;;;16.60;86.80;;;;;;4952540;28;20974;-72
2022/09/17 06:19:28;;;;;;;3.80;1.50;;;16.60;86.70;;;;;;4949364;28;20420;-72
2022/09/17 06:21:55;;;;;;;2.67;1.50;;;16.60;86.80;;;;;;4936170;29;20468;-72
2022/09/17 06:24:21;;;;;;;5.37;1.40;;;16.50;86.70;;;;;;4952956;28;20456;-72
2022/09/17 06:26:47;;;;;;;5.47;2.50;;;16.60;86.90;;;;;;4951030;29;20470;-72
2022/09/17 06:29:14;;;;;;;5.70;1.53;;;16.60;86.80;;;;;;4918924;29;20960;-72
2022/09/17 06:31:43;;;;;;;2.93;1.30;;;16.60;86.90;;;;;;4941045;29;20425;-72
2022/09/17 06:34:10;;;;;;;4.23;1.73;;;16.60;86.80;;;;;;4951938;28;20463;-72
2022/09/17 06:36:38;;;;;;;4.63;1.50;;;16.50;86.80;;;;;;4967847;28;20935;-72
2022/09/17 06:39:07;;;;;;;3.43;1.73;;;16.50;86.80;;;;;;4936331;29;20450;-72
2022/09/17 06:41:36;;;;;;;4.87;1.53;;;16.50;86.80;;;;;;4943997;29;20469;-72
2022/09/17 06:44:21;;;;;;;4.97;1.40;;;16.50;86.80;;;;;;4933856;29;20506;-72
2022/09/17 06:46:52;;;;;;;5.83;1.90;;;16.50;86.80;;;;;;4935555;29;20482;-72
2022/09/17 06:49:18;;;;;;;4.23;1.47;;;16.50;86.90;;;;;;4937243;29;20927;-72
2022/09/17 06:51:49;;;;;;;5.00;2.00;;;16.50;86.80;;;;;;4968545;28;20477;-72
2022/09/17 06:54:18;;;;;;;5.70;2.13;;;16.50;86.90;;;;;;4966316;28;20492;-72
2022/09/17 06:56:46;;;;;;;5.27;1.50;;;16.50;86.90;;;;;;4935823;29;20441;-72
2022/09/17 06:59:14;;;;;;;4.80;1.50;;;16.50;86.90;;;;;;4951058;28;20414;-72
2022/09/17 07:01:40;;;;;;;7.57;1.50;;;16.50;86.90;;;;;;4934394;29;20579;-72
2022/09/17 07:04:06;;;;;;;3.57;1.40;;;16.50;86.90;;;;;;4952263;28;20458;-72
2022/09/17 07:06:32;;;;;;;4.17;1.30;;;16.50;87.00;;;;;;4952453;29;20413;-72
2022/09/17 07:08:58;;;;;;;4.50;1.50;;;16.50;87.00;;;;;;4933977;29;20452;-72
2022/09/17 07:11:26;;;;;;;6.53;1.73;;;16.50;87.00;;;;;;4948082;29;20926;-72
2022/09/17 07:13:52;;;;;;;5.23;1.50;;;16.50;87.10;;;;;;4933145;29;20582;-72
2022/09/17 07:16:18;;;;;;;5.97;1.70;;;16.50;87.00;;;;;;4936889;29;20511;-72
2022/09/17 07:18:47;;;;;;;4.73;1.40;;;16.40;86.90;;;;;;4968189;28;20411;-72
2022/09/17 07:21:17;;;;;;;5.20;1.37;;;16.40;86.90;;;;;;4938312;29;21024;-72
2022/09/17 07:23:45;;;;;;;4.60;1.73;;;16.50;87.00;;;;;;4952461;29;20427;-72
2022/09/17 07:26:13;;;;;;;3.90;1.30;;;16.50;87.00;;;;;;4949931;28;21046;-72
2022/09/17 07:28:40;;;;;;;6.17;1.57;;;16.50;87.10;;;;;;4933944;29;20483;-72
2022/09/17 07:31:07;;;;;;;3.40;1.67;;;16.40;87.00;;;;;;4950187;28;20435;-72
2022/09/17 07:33:36;;;;;;;5.40;1.37;;;16.40;87.00;;;;;;4949489;28;20468;-72
2022/09/17 07:36:16;;;;;;;5.87;1.90;;;16.40;87.00;;;;;;4957063;28;20883;-72
2022/09/17 07:38:42;;;;;;;5.00;1.80;;;16.40;87.00;;;;;;4955436;28;21024;-72
2022/09/17 07:41:12;;;;;;;6.67;1.40;;;16.50;87.10;;;;;;4934975;29;20467;-72
2022/09/17 07:43:38;;;;;;;3.40;1.77;;;16.40;87.10;;;;;;4936479;29;20416;-72
2022/09/17 07:46:05;;;;;;;7.00;1.70;;;16.40;87.00;;;;;;4935996;29;20437;-71
2022/09/17 07:48:38;;;;;;;2.53;1.20;;;16.40;87.00;;;;;;4937281;29;20481;-72
2022/09/17 07:51:04;;;;;;;6.00;1.83;;;16.40;87.10;;;;;;4939200;29;20412;-72
2022/09/17 07:53:31;;;;;;;6.03;1.90;;;16.40;87.10;;;;;;4955444;29;20435;-71
2022/09/17 07:55:59;;;;;;;2.80;1.20;;;16.40;87.10;;;;;;4955371;28;20454;-72
2022/09/17 07:58:45;;;;;;;4.30;1.23;;;16.40;87.00;;;;;;4906500;29;20460;-72
2022/09/17 08:01:14;;;;;;;4.37;1.60;;;16.40;87.00;;;;;;4938310;29;20498;-72
2022/09/17 08:03:40;;;;;;;4.70;1.50;;;16.40;87.00;;;;;;4956017;29;20784;-72
2022/09/17 08:06:11;;;;;;;2.50;1.30;;;16.40;87.00;;;;;;4958323;28;20453;-71
2022/09/17 08:08:38;;;;;;;4.87;2.10;;;16.40;87.00;;;;;;4935714;29;20458;-72
2022/09/17 08:11:10;;;;;;;7.07;1.73;;;16.40;86.90;;;;;;4952901;28;20930;-72
2022/09/17 08:13:37;;;;;;;4.90;1.00;;;16.40;86.90;;;;;;4944958;29;20460;-72
2022/09/17 08:16:08;;;;;;;3.30;1.30;;;16.40;86.90;;;;;;4947839;29;20465;-71
2022/09/17 08:18:34;;;;;;;4.33;1.60;;;16.40;86.90;;;;;;4970742;28;20424;-72
2022/09/17 08:21:05;;;;;;;3.13;1.40;;;16.40;86.80;;;;;;4944837;29;20509;-72
2022/09/17 08:23:35;;;;;;;2.03;1.20;;;16.40;86.80;;;;;;4955925;28;20460;-72
2022/09/17 08:26:11;;;;;;;3.80;2.10;;;16.40;86.70;;;;;;4968385;28;20457;-72
2022/09/17 08:28:58;;;;;;;1.60;1.20;;;16.40;86.70;;;;;;4968316;28;20402;-71
2022/09/17 08:31:29;;;;;;;7.23;1.23;;;16.40;86.70;;;;;;4945198;29;20416;-71
2022/09/17 08:33:55;;;;;;;5.50;1.60;;;16.40;86.70;;;;;;4945111;29;20429;-71
2022/09/17 08:36:21;;;;;;;5.93;1.63;;;16.40;86.70;;;;;;4951157;29;20413;-72
2022/09/17 08:38:52;;;;;;;3.97;1.30;;;16.40;86.60;;;;;;4936423;29;20500;-72
2022/09/17 08:41:40;;;;;;;2.40;1.03;;;16.50;86.70;;;;;;4948030;29;20538;-72
2022/09/17 08:44:24;;;;;;;3.27;1.10;;;16.40;86.50;;;;;;4951150;29;20394;-71
2022/09/17 08:47:13;;;;;;;1.73;1.20;;;16.50;86.70;;;;;;4949936;29;20982;-72
2022/09/17 08:50:02;;;;;;;3.27;1.20;;;16.40;86.50;;;;;;4970207;28;20420;-72
2022/09/17 08:53:02;;;;;;;4.03;1.37;;;16.40;86.60;;;;;;4951341;28;20427;-72
2022/09/17 08:55:34;;;;;;;2.77;1.20;;;16.40;86.40;;;;;;4936701;29;20447;-72
2022/09/17 08:58:06;;;;;;;3.33;1.30;;;16.50;86.50;;;;;;4954164;28;20960;-72
2022/09/17 09:00:54;;;;;;;4.60;1.63;;;16.50;86.50;;;;;;4952389;29;20474;-72
2022/09/17 09:03:42;;;;;;;3.63;1.40;;;16.50;86.40;;;;;;4965552;28;20507;-72
2022/09/17 09:06:08;;;;;;;3.67;1.30;;;16.50;86.30;;;;;;4950551;28;20453;-71
2022/09/17 09:08:55;;;;;;;4.63;1.43;;;16.50;86.20;;;;;;4941273;29;20534;-71
2022/09/17 09:11:25;;;;;;;4.23;1.50;;;16.50;86.20;;;;;;4956931;28;20441;-71
2022/09/17 09:14:22;;;;;;;6.40;1.87;;;16.50;86.10;;;;;;4957769;28;20507;-72
2022/09/17 09:16:51;;;;;;;5.07;1.10;;;16.50;86.00;;;;;;4934016;29;21033;-72
2022/09/17 09:19:42;;;;;;;2.97;1.30;;;16.50;85.90;;;;;;4945599;29;20437;-72
2022/09/17 09:22:20;;;;;;;4.83;1.30;;;16.60;85.90;;;;;;4952481;29;20476;-71
2022/09/17 09:25:09;;;;;;;4.50;1.47;;;16.60;85.80;;;;;;4956130;28;20501;-72
2022/09/17 09:28:13;;;;;;;3.30;1.43;;;16.60;85.80;;;;;;4919470;29;20435;-72
2022/09/17 09:31:01;;;;;;;5.40;1.83;;;16.60;85.70;;;;;;4930334;29;20421;-72
2022/09/17 09:33:34;;;;;;;4.07;1.00;;;16.60;85.70;;;;;;4934304;29;20452;-72
2022/09/17 09:36:01;;;;;;;6.77;1.60;;;16.60;85.60;;;;;;4934320;29;20455;-72
2022/09/17 09:38:38;;;;;;;5.23;1.20;;;16.60;85.60;;;;;;4927259;29;20430;-72
2022/09/17 09:41:09;;;;;;;4.37;1.37;;;16.60;85.50;;;;;;4945280;29;20541;-72
2022/09/17 09:43:40;;;;;;;2.77;1.10;;;16.60;85.30;;;;;;4952361;28;20487;-72
2022/09/17 09:46:23;;;;;;;4.60;1.20;;;16.70;85.30;;;;;;4935092;29;20464;-72
2022/09/17 09:49:16;;;;;;;2.90;1.17;;;16.70;85.10;;;;;;4935218;29;20431;-72
2022/09/17 09:52:03;;;;;;;3.80;1.17;;;16.70;85.00;;;;;;4894844;29;20871;-72
2022/09/17 09:55:09;;;;;;;6.73;1.30;;;16.70;84.90;;;;;;4949721;28;20471;-71
2022/09/17 09:57:43;;;;;;;4.23;1.10;;;16.70;84.70;;;;;;4952933;28;20908;-72
2022/09/17 10:00:25;;;;;;;3.50;1.20;;;16.70;84.60;;;;;;4946757;29;20463;-72
2022/09/17 10:02:58;;;;;;;3.93;1.10;;;16.70;84.60;;;;;;4966002;28;20829;-72
2022/09/17 10:05:29;;;;;;;3.87;1.20;;;16.80;84.70;;;;;;4934674;29;20477;-72
2022/09/17 10:07:59;;;;;;;3.30;1.20;;;16.80;84.50;;;;;;4936784;29;20502;-72
2022/09/17 10:10:31;;;;;;;2.67;1.30;;;16.80;84.40;;;;;;4939534;29;20851;-71
2022/09/17 10:13:06;;;;;;;3.03;1.07;;;16.80;84.30;;;;;;4950220;29;20488;-73
2022/09/17 10:15:32;;;;;;;2.50;1.03;;;16.80;84.20;;;;;;4964345;28;20445;-71
2022/09/17 10:18:17;;;;;;;2.23;1.23;;;16.80;84.10;;;;;;4933638;29;20430;-71
2022/09/17 10:21:00;;;;;;;3.03;0.93;;;16.80;84.10;;;;;;4950958;29;20986;-72
2022/09/17 10:23:35;;;;;;;3.17;1.07;;;16.90;84.20;;;;;;4957975;28;20854;-72
2022/09/17 10:26:03;;;;;;;3.80;1.23;;;16.90;84.10;;;;;;4950812;29;20453;-73
2022/09/17 10:28:48;;;;;;;4.43;1.60;;;16.90;84.10;;;;;;4952735;29;20511;-73
2022/09/17 10:31:18;;;;;;;2.30;1.40;;;16.90;83.90;;;;;;4951227;28;20521;-72
2022/09/17 10:34:07;;;;;;;2.40;0.80;;;16.90;83.80;;;;;;4946099;28;20931;-72
2022/09/17 10:36:57;;;;;;;4.80;1.10;;;17.00;83.80;;;;;;4945844;29;20508;-72
2022/09/17 10:39:35;;;;;;;3.20;1.10;;;17.00;83.80;;;;;;4944024;29;20782;-72
2022/09/17 10:42:01;;;;;;;2.37;0.90;;;17.00;83.90;;;;;;4968692;28;20534;-72
2022/09/17 10:44:29;;;;;;;3.60;1.20;;;17.00;83.90;;;;;;4944364;28;21035;-72
2022/09/17 10:47:30;;;;;;;3.33;1.10;;;17.00;84.00;;;;;;4944932;29;20434;-72
2022/09/17 10:50:03;;;;;;;3.03;1.10;;;17.00;84.00;;;;;;4956996;28;20993;-72
2022/09/17 10:52:34;;;;;;;3.13;0.90;;;17.10;84.10;;;;;;4949975;29;20399;-72
2022/09/17 10:55:13;;;;;;;2.33;1.00;;;17.10;84.00;;;;;;4951143;28;20836;-72
2022/09/17 10:58:06;;;;;;;4.47;1.47;;;17.10;84.00;;;;;;4936324;29;20956;-72
2022/09/17 11:00:43;;;;;;;2.23;0.90;;;17.10;83.90;;;;;;4955572;28;20456;-72
2022/09/17 11:03:33;;;;;;;2.10;1.10;;;17.10;84.00;;;;;;4949990;28;21009;-72
2022/09/17 11:06:20;;;;;;;4.40;1.20;;;17.10;84.80;;;;;;4932937;29;20565;-72
2022/09/17 11:09:23;;;;;;;4.20;1.43;;;17.10;84.10;;;;;;4948149;29;20834;-72
2022/09/17 11:12:11;;;;;;;1.80;0.93;;;17.10;84.10;;;;;;4929780;29;20915;-72
2022/09/17 11:14:51;;;;;;;2.77;1.13;;;17.20;84.10;;;;;;4929897;29;21005;-73
2022/09/17 11:17:30;;;;;;;2.97;1.23;;;17.10;84.00;;;;;;4930139;29;20436;-72
2022/09/17 11:20:16;;;;;;;2.80;1.13;;;17.20;84.10;;;;;;4944473;29;20558;-72
2022/09/17 11:23:07;;;;;;;3.53;0.90;;;17.20;84.00;;;;;;4936567;29;20461;-72
2022/09/17 11:25:46;;;;;;;1.73;1.10;;;17.20;83.90;;;;;;4919137;29;20804;-72
2022/09/17 11:28:42;;;;;;;2.53;1.27;;;17.20;83.80;;;;;;4940867;29;20440;-72
2022/09/17 11:31:32;;;;;;;4.70;1.10;;;17.30;83.70;;;;;;4938831;28;20448;-72
2022/09/17 11:34:17;;;;;;;3.73;1.03;;;17.30;83.60;;;;;;4968557;28;20422;-72
2022/09/17 11:37:18;;;;;;;3.80;1.40;;;17.30;83.40;;;;;;4956684;29;20483;-72
2022/09/17 11:39:56;;;;;;;3.67;1.10;;;17.30;83.40;;;;;;4920735;29;20488;-72
2022/09/17 11:42:36;;;;;;;3.03;1.10;;;17.30;83.20;;;;;;4955611;28;20495;-72
2022/09/17 11:45:17;;;;;;;4.03;1.10;;;17.40;83.20;;;;;;4971415;28;20460;-72
2022/09/17 11:47:52;;;;;;;1.83;0.90;;;17.40;83.10;;;;;;4917462;29;20504;-72
2022/09/17 11:50:27;;;;;;;1.93;1.00;;;17.40;83.00;;;;;;4934128;29;20499;-72
2022/09/17 11:53:26;;;;;;;2.70;1.40;;;17.40;83.10;;;;;;4956510;28;20758;-72
2022/09/17 11:56:02;;;;;;;2.40;0.93;;;17.40;83.20;;;;;;4966510;28;20473;-71
2022/09/17 11:58:50;;;;;;;1.67;1.10;;;17.40;83.30;;;;;;4934807;29;20975;-71
2022/09/17 12:01:44;;;;;;;1.97;1.40;;;17.40;83.30;;;;;;4960929;28;21103;-72
2022/09/17 12:04:36;;;;;;;1.50;1.20;;;17.40;83.40;;;;;;4967758;28;20454;-72
2022/09/17 12:07:22;;;;;;;2.93;1.03;;;17.40;83.40;;;;;;4972540;28;20477;-72
2022/09/17 12:09:56;;;;;;;1.67;1.10;;;17.40;83.50;;;;;;4933720;29;20460;-72
2022/09/17 12:12:24;;;;;;;1.00;0.90;;;17.40;83.60;;;;;;4950663;29;20452;-72
2022/09/17 12:15:01;;;;;;;1.53;0.90;;;17.40;83.60;;;;;;4933545;29;20455;-72
2022/09/17 12:17:49;;;;;;;2.60;1.20;;;17.40;83.60;;;;;;4966966;28;20472;-72
2022/09/17 12:20:23;;;;;;;2.80;1.50;;;17.50;83.70;;;;;;4919040;29;20426;-72
2022/09/17 12:22:51;;;;;;;2.60;1.67;;;17.50;83.60;;;;;;4955707;29;20473;-72
2022/09/17 12:25:21;;;;;;;3.27;2.50;;;17.50;83.60;;;;;;4956959;28;20434;-72
2022/09/17 12:28:03;;;;;;;4.00;2.80;;;17.50;83.80;;;;;;4971443;28;20426;-72
2022/09/17 12:30:43;;;;;;;5.77;2.60;;;17.50;83.90;;;;;;4956592;29;20537;-72
2022/09/17 12:33:33;;;;;;;6.37;2.10;;;17.50;84.00;;;;;;4970512;28;20417;-72
2022/09/17 12:36:01;;;;;;;3.43;2.23;;;17.50;84.20;;;;;;4955547;28;20463;-72
2022/09/17 12:38:49;;;;;;;4.37;2.50;;;17.50;84.50;;;;;;4939774;29;20962;-72
2022/09/17 12:41:39;;;;;;;5.67;2.70;;;17.50;84.70;;;;;;4939614;29;20476;-72
2022/09/17 12:44:14;;;;;;;3.93;2.47;;;17.50;84.70;;;;;;4943317;29;20435;-72
2022/09/17 12:46:58;;;;;;;2.80;2.00;;;17.50;84.90;;;;;;4936504;29;20419;-72
2022/09/17 12:49:29;;;;;;;3.70;2.00;;;17.50;85.00;;;;;;4943075;29;20460;-72
2022/09/17 12:52:00;;;;;;;2.37;1.60;;;17.50;85.00;;;;;;4955491;29;20464;-72
2022/09/17 12:54:59;;;;;;;3.30;1.90;;;17.50;85.10;;;;;;4938250;29;20454;-72
2022/09/17 12:58:22;;;;;;;2.90;1.90;;;17.50;85.30;;;;;;4937286;29;20442;-72
2022/09/17 13:00:54;;;;;;;2.03;1.70;;;17.50;85.50;;;;;;4897541;29;20440;-72
2022/09/17 13:03:29;;;;;;;3.10;1.80;;;17.50;85.70;;;;;;4897235;29;20434;-71
2022/09/17 13:06:08;;;;;;;2.63;1.60;;;17.50;85.70;;;;;;4897001;29;20448;-72
2022/09/17 13:08:51;;;;;;;3.00;1.67;;;17.50;85.80;;;;;;4905910;29;20433;-71
2022/09/17 13:11:44;;;;;;;3.13;2.40;;;17.60;85.90;;;;;;4916233;29;20454;-71
2022/09/17 13:14:49;;;;;;;4.00;1.77;;;17.60;86.00;;;;;;4903876;29;20471;-72
2022/09/17 13:17:23;;;;;;;1.90;1.40;;;17.60;86.10;;;;;;4869233;29;20477;-72
2022/09/17 13:20:10;;;;;;;3.03;1.83;;;17.60;86.10;;;;;;4894424;29;20518;-72
2022/09/17 13:22:45;;;;;;;1.87;1.33;;;17.60;86.10;;;;;;4884273;29;20487;-72
2022/09/17 13:25:18;;;;;;;2.00;1.13;;;17.60;86.10;;;;;;4899972;29;20806;-72
2022/09/17 13:27:46;;;;;;;2.00;1.60;;;17.60;86.10;;;;;;4916023;29;20396;-72
2022/09/17 13:30:17;;;;;;;2.73;1.40;;;17.60;86.10;;;;;;4911520;29;20454;-72